sensor_id;sensor_type;location;lat;lon;timestamp;pressure;altitude;pressure_sealevel;temperature
21898;BMP180;11113;48.662;9.056;2022-07-22T06:44:17;96950.00;;;26.30
21898;BMP180;11113;48.662;9.056;2022-07-22T06:46:46;96939.00;;;27.20
21898;BMP180;11113;48.662;9.056;2022-07-22T06:49:12;96946.00;;;27.50
21898;BMP180;11113;48.662;9.056;2022-07-22T06:51:38;96975.00;;;27.10
21898;BMP180;11113;48.662;9.056;2022-07-22T06:54:04;96975.00;;;26.80
21898;BMP180;11113;48.662;9.056;2022-07-22T06:56:30;96975.00;;;26.70
21898;BMP180;11113;48.662;9.056;2022-07-22T06:58:55;96975.00;;;26.70
21898;BMP180;11113;48.662;9.056;2022-07-22T07:01:21;96976.00;;;26.70
21898;BMP180;11113;48.662;9.056;2022-07-22T07:03:47;96980.00;;;26.70
21898;BMP180;11113;48.662;9.056;2022-07-22T07:06:13;96971.00;;;26.70
21898;BMP180;11113;48.662;9.056;2022-07-22T07:08:40;96972.00;;;26.80
21898;BMP180;11113;48.662;9.056;2022-07-22T07:11:06;96967.00;;;26.80
21898;BMP180;11113;48.662;9.056;2022-07-22T07:13:32;96972.00;;;26.80
21898;BMP180;11113;48.662;9.056;2022-07-22T07:15:58;96966.00;;;26.80
21898;BMP180;11113;48.662;9.056;2022-07-22T07:18:24;96961.00;;;26.90
21898;BMP180;11113;48.662;9.056;2022-07-22T07:20:50;96952.00;;;26.90
21898;BMP180;11113;48.662;9.056;2022-07-22T07:23:16;96955.00;;;26.90
21898;BMP180;11113;48.662;9.056;2022-07-22T07:25:42;96960.00;;;26.90
21898;BMP180;11113;48.662;9.056;2022-07-22T07:28:08;96961.00;;;27.00
21898;BMP180;11113;48.662;9.056;2022-07-22T07:30:34;96961.00;;;27.00
21898;BMP180;11113;48.662;9.056;2022-07-22T07:33:00;96950.00;;;27.00
21898;BMP180;11113;48.662;9.056;2022-07-22T07:35:27;96945.00;;;27.00
21898;BMP180;11113;48.662;9.056;2022-07-22T07:37:55;96934.00;;;27.00
21898;BMP180;11113;48.662;9.056;2022-07-22T07:40:21;96945.00;;;27.10
21898;BMP180;11113;48.662;9.056;2022-07-22T07:42:47;96936.00;;;27.00
21898;BMP180;11113;48.662;9.056;2022-07-22T07:45:13;96945.00;;;27.10
21898;BMP180;11113;48.662;9.056;2022-07-22T07:47:42;96943.00;;;27.10
21898;BMP180;11113;48.662;9.056;2022-07-22T07:50:09;96936.00;;;27.10
21898;BMP180;11113;48.662;9.056;2022-07-22T07:52:40;96947.00;;;27.10
21898;BMP180;11113;48.662;9.056;2022-07-22T07:55:08;96954.00;;;27.10
21898;BMP180;11113;48.662;9.056;2022-07-22T07:57:35;96943.00;;;27.10
21898;BMP180;11113;48.662;9.056;2022-07-22T08:00:06;96949.00;;;27.10
21898;BMP180;11113;48.662;9.056;2022-07-22T08:02:33;96948.00;;;27.10
21898;BMP180;11113;48.662;9.056;2022-07-22T08:04:59;96941.00;;;27.10
21898;BMP180;11113;48.662;9.056;2022-07-22T08:07:28;96944.00;;;27.10
21898;BMP180;11113;48.662;9.056;2022-07-22T08:09:57;96942.00;;;27.10
21898;BMP180;11113;48.662;9.056;2022-07-22T08:12:25;96940.00;;;27.10
21898;BMP180;11113;48.662;9.056;2022-07-22T08:14:52;96938.00;;;27.10
21898;BMP180;11113;48.662;9.056;2022-07-22T08:17:20;96949.00;;;27.10
21898;BMP180;11113;48.662;9.056;2022-07-22T08:19:46;96934.00;;;27.10
21898;BMP180;11113;48.662;9.056;2022-07-22T08:22:15;96937.00;;;27.10
21898;BMP180;11113;48.662;9.056;2022-07-22T08:24:46;96932.00;;;27.10
21898;BMP180;11113;48.662;9.056;2022-07-22T08:27:15;96933.00;;;27.10
21898;BMP180;11113;48.662;9.056;2022-07-22T08:29:44;96924.00;;;27.10
21898;BMP180;11113;48.662;9.056;2022-07-22T08:32:18;96920.00;;;27.10
21898;BMP180;11113;48.662;9.056;2022-07-22T08:34:45;96932.00;;;27.10
21898;BMP180;11113;48.662;9.056;2022-07-22T08:37:11;96926.00;;;27.10
21898;BMP180;11113;48.662;9.056;2022-07-22T08:39:37;96921.00;;;27.10
21898;BMP180;11113;48.662;9.056;2022-07-22T08:42:03;96926.00;;;27.10
21898;BMP180;11113;48.662;9.056;2022-07-22T08:44:33;96915.00;;;27.10
21898;BMP180;11113;48.662;9.056;2022-07-22T08:47:04;96918.00;;;27.10
21898;BMP180;11113;48.662;9.056;2022-07-22T08:49:32;96906.00;;;27.10
21898;BMP180;11113;48.662;9.056;2022-07-22T08:52:01;96909.00;;;27.10
21898;BMP180;11113;48.662;9.056;2022-07-22T08:54:27;96912.00;;;27.10
21898;BMP180;11113;48.662;9.056;2022-07-22T08:56:56;96903.00;;;27.10
21898;BMP180;11113;48.662;9.056;2022-07-22T08:59:22;96911.00;;;27.00
21898;BMP180;11113;48.662;9.056;2022-07-22T09:02:09;96908.00;;;27.10
21898;BMP180;11113;48.662;9.056;2022-07-22T09:04:54;96924.00;;;27.10
21898;BMP180;11113;48.662;9.056;2022-07-22T09:07:35;96910.00;;;27.10
21898;BMP180;11113;48.662;9.056;2022-07-22T09:10:13;96907.00;;;27.20
21898;BMP180;11113;48.662;9.056;2022-07-22T09:12:59;96900.00;;;27.20
21898;BMP180;11113;48.662;9.056;2022-07-22T09:15:33;96907.00;;;27.20
21898;BMP180;11113;48.662;9.056;2022-07-22T09:18:02;96911.00;;;27.30
21898;BMP180;11113;48.662;9.056;2022-07-22T09:20:29;96903.00;;;27.20
21898;BMP180;11113;48.662;9.056;2022-07-22T09:23:05;96915.00;;;27.20
21898;BMP180;11113;48.662;9.056;2022-07-22T09:25:47;96913.00;;;27.20
21898;BMP180;11113;48.662;9.056;2022-07-22T09:28:23;96911.00;;;27.20
21898;BMP180;11113;48.662;9.056;2022-07-22T09:30:53;96909.00;;;27.20
21898;BMP180;11113;48.662;9.056;2022-07-22T09:33:20;96908.00;;;27.20
21898;BMP180;11113;48.662;9.056;2022-07-22T09:35:48;96898.00;;;27.20
21898;BMP180;11113;48.662;9.056;2022-07-22T09:38:18;96896.00;;;27.20
21898;BMP180;11113;48.662;9.056;2022-07-22T09:40:46;96896.00;;;27.20
21898;BMP180;11113;48.662;9.056;2022-07-22T09:43:18;96896.00;;;27.20
21898;BMP180;11113;48.662;9.056;2022-07-22T09:45:57;96888.00;;;27.20
21898;BMP180;11113;48.662;9.056;2022-07-22T09:48:23;96881.00;;;27.20
21898;BMP180;11113;48.662;9.056;2022-07-22T09:50:51;96889.00;;;27.20
21898;BMP180;11113;48.662;9.056;2022-07-22T09:53:20;96875.00;;;27.20
21898;BMP180;11113;48.662;9.056;2022-07-22T09:55:48;96876.00;;;27.20
21898;BMP180;11113;48.662;9.056;2022-07-22T09:58:14;96869.00;;;27.30
21898;BMP180;11113;48.662;9.056;2022-07-22T10:00:41;96880.00;;;27.30
21898;BMP180;11113;48.662;9.056;2022-07-22T10:03:17;96862.00;;;27.30
21898;BMP180;11113;48.662;9.056;2022-07-22T10:05:44;96871.00;;;27.30
21898;BMP180;11113;48.662;9.056;2022-07-22T10:08:14;96862.00;;;27.30
21898;BMP180;11113;48.662;9.056;2022-07-22T10:10:40;96860.00;;;27.30
21898;BMP180;11113;48.662;9.056;2022-07-22T10:13:08;96854.00;;;27.30
21898;BMP180;11113;48.662;9.056;2022-07-22T10:15:35;96860.00;;;27.30
21898;BMP180;11113;48.662;9.056;2022-07-22T10:18:09;96850.00;;;27.30
21898;BMP180;11113;48.662;9.056;2022-07-22T10:20:38;96852.00;;;27.30
21898;BMP180;11113;48.662;9.056;2022-07-22T10:23:07;96863.00;;;27.30
21898;BMP180;11113;48.662;9.056;2022-07-22T10:25:55;96843.00;;;27.30
21898;BMP180;11113;48.662;9.056;2022-07-22T10:28:26;96845.00;;;27.30
21898;BMP180;11113;48.662;9.056;2022-07-22T10:30:53;96837.00;;;27.30
21898;BMP180;11113;48.662;9.056;2022-07-22T10:33:20;96837.00;;;27.30
21898;BMP180;11113;48.662;9.056;2022-07-22T10:36:01;96844.00;;;27.40
21898;BMP180;11113;48.662;9.056;2022-07-22T10:38:30;96830.00;;;27.30
21898;BMP180;11113;48.662;9.056;2022-07-22T10:41:02;96823.00;;;27.30
21898;BMP180;11113;48.662;9.056;2022-07-22T10:43:46;96835.00;;;27.30
21898;BMP180;11113;48.662;9.056;2022-07-22T10:46:14;96833.00;;;27.30
21898;BMP180;11113;48.662;9.056;2022-07-22T10:51:16;96823.00;;;27.30
21898;BMP180;11113;48.662;9.056;2022-07-22T10:53:57;96825.00;;;27.30
21898;BMP180;11113;48.662;9.056;2022-07-22T10:56:33;96828.00;;;27.30
21898;BMP180;11113;48.662;9.056;2022-07-22T10:59:17;96826.00;;;27.30
21898;BMP180;11113;48.662;9.056;2022-07-22T11:01:51;96823.00;;;27.30
21898;BMP180;11113;48.662;9.056;2022-07-22T11:04:24;96817.00;;;27.30
21898;BMP180;11113;48.662;9.056;2022-07-22T11:06:56;96826.00;;;27.30
21898;BMP180;11113;48.662;9.056;2022-07-22T11:09:32;96811.00;;;27.30
21898;BMP180;11113;48.662;9.056;2022-07-22T11:11:58;96815.00;;;27.30
21898;BMP180;11113;48.662;9.056;2022-07-22T11:14:32;96810.00;;;27.30
21898;BMP180;11113;48.662;9.056;2022-07-22T11:17:07;96811.00;;;27.30
21898;BMP180;11113;48.662;9.056;2022-07-22T11:19:35;96803.00;;;27.30
21898;BMP180;11113;48.662;9.056;2022-07-22T11:22:10;96796.00;;;27.30
21898;BMP180;11113;48.662;9.056;2022-07-22T11:24:38;96795.00;;;27.30
21898;BMP180;11113;48.662;9.056;2022-07-22T11:27:09;96796.00;;;27.30
21898;BMP180;11113;48.662;9.056;2022-07-22T11:29:39;96786.00;;;27.30
21898;BMP180;11113;48.662;9.056;2022-07-22T11:32:10;96785.00;;;27.30
21898;BMP180;11113;48.662;9.056;2022-07-22T11:34:39;96788.00;;;27.30
21898;BMP180;11113;48.662;9.056;2022-07-22T11:37:08;96788.00;;;27.30
21898;BMP180;11113;48.662;9.056;2022-07-22T11:39:34;96777.00;;;27.30
21898;BMP180;11113;48.662;9.056;2022-07-22T11:42:01;96770.00;;;27.30
21898;BMP180;11113;48.662;9.056;2022-07-22T11:44:33;96781.00;;;27.30
21898;BMP180;11113;48.662;9.056;2022-07-22T11:47:00;96773.00;;;27.40
21898;BMP180;11113;48.662;9.056;2022-07-22T11:49:29;96767.00;;;27.30
21898;BMP180;11113;48.662;9.056;2022-07-22T11:51:55;96759.00;;;27.30
21898;BMP180;11113;48.662;9.056;2022-07-22T11:54:21;96761.00;;;27.30
21898;BMP180;11113;48.662;9.056;2022-07-22T11:56:47;96754.00;;;27.30
21898;BMP180;11113;48.662;9.056;2022-07-22T11:59:15;96745.00;;;27.30
21898;BMP180;11113;48.662;9.056;2022-07-22T12:01:46;96741.00;;;27.30
21898;BMP180;11113;48.662;9.056;2022-07-22T12:04:17;96742.00;;;27.60
21898;BMP180;11113;48.662;9.056;2022-07-22T12:06:44;96739.00;;;27.60
21898;BMP180;11113;48.662;9.056;2022-07-22T12:09:15;96739.00;;;27.60
21898;BMP180;11113;48.662;9.056;2022-07-22T12:11:46;96732.00;;;27.60
21898;BMP180;11113;48.662;9.056;2022-07-22T12:14:26;96731.00;;;27.60
21898;BMP180;11113;48.662;9.056;2022-07-22T12:16:58;96725.00;;;27.60
21898;BMP180;11113;48.662;9.056;2022-07-22T12:19:27;96719.00;;;27.70
21898;BMP180;11113;48.662;9.056;2022-07-22T12:22:00;96715.00;;;27.70
21898;BMP180;11113;48.662;9.056;2022-07-22T12:24:42;96721.00;;;27.70
21898;BMP180;11113;48.662;9.056;2022-07-22T12:27:14;96725.00;;;27.70
21898;BMP180;11113;48.662;9.056;2022-07-22T12:32:27;96727.00;;;27.70
21898;BMP180;11113;48.662;9.056;2022-07-22T12:35:00;96732.00;;;27.60
21898;BMP180;11113;48.662;9.056;2022-07-22T12:37:40;96720.00;;;27.60
21898;BMP180;11113;48.662;9.056;2022-07-22T12:40:10;96712.00;;;27.60
21898;BMP180;11113;48.662;9.056;2022-07-22T12:42:59;96704.00;;;27.60
21898;BMP180;11113;48.662;9.056;2022-07-22T12:45:28;96707.00;;;27.60
21898;BMP180;11113;48.662;9.056;2022-07-22T12:48:04;96701.00;;;27.50
21898;BMP180;11113;48.662;9.056;2022-07-22T12:50:42;96698.00;;;27.50
21898;BMP180;11113;48.662;9.056;2022-07-22T12:53:11;96701.00;;;27.50
21898;BMP180;11113;48.662;9.056;2022-07-22T12:58:08;96702.00;;;27.50
21898;BMP180;11113;48.662;9.056;2022-07-22T13:00:49;96700.00;;;27.50
21898;BMP180;11113;48.662;9.056;2022-07-22T13:03:16;96694.00;;;27.40
21898;BMP180;11113;48.662;9.056;2022-07-22T13:05:47;96689.00;;;27.40
21898;BMP180;11113;48.662;9.056;2022-07-22T13:08:13;96686.00;;;27.40
21898;BMP180;11113;48.662;9.056;2022-07-22T13:10:39;96680.00;;;27.40
21898;BMP180;11113;48.662;9.056;2022-07-22T13:13:05;96689.00;;;27.40
21898;BMP180;11113;48.662;9.056;2022-07-22T13:15:32;96687.00;;;27.40
21898;BMP180;11113;48.662;9.056;2022-07-22T13:17:58;96683.00;;;27.40
21898;BMP180;11113;48.662;9.056;2022-07-22T13:20:23;96685.00;;;27.40
21898;BMP180;11113;48.662;9.056;2022-07-22T13:22:49;96673.00;;;27.40
21898;BMP180;11113;48.662;9.056;2022-07-22T13:25:15;96677.00;;;27.40
21898;BMP180;11113;48.662;9.056;2022-07-22T13:27:41;96677.00;;;27.40
21898;BMP180;11113;48.662;9.056;2022-07-22T13:30:07;96678.00;;;27.40
21898;BMP180;11113;48.662;9.056;2022-07-22T13:32:36;96671.00;;;27.40
21898;BMP180;11113;48.662;9.056;2022-07-22T13:35:02;96674.00;;;27.40
21898;BMP180;11113;48.662;9.056;2022-07-22T13:37:28;96675.00;;;27.40
21898;BMP180;11113;48.662;9.056;2022-07-22T13:39:54;96673.00;;;27.40
21898;BMP180;11113;48.662;9.056;2022-07-22T13:42:20;96677.00;;;27.40
21898;BMP180;11113;48.662;9.056;2022-07-22T13:44:46;96666.00;;;27.50
21898;BMP180;11113;48.662;9.056;2022-07-22T13:47:12;96673.00;;;27.40
21898;BMP180;11113;48.662;9.056;2022-07-22T13:49:38;96667.00;;;27.50
21898;BMP180;11113;48.662;9.056;2022-07-22T13:52:07;96670.00;;;27.50
21898;BMP180;11113;48.662;9.056;2022-07-22T13:54:34;96670.00;;;27.50
21898;BMP180;11113;48.662;9.056;2022-07-22T13:57:00;96669.00;;;27.50
21898;BMP180;11113;48.662;9.056;2022-07-22T13:59:27;96670.00;;;27.50
21898;BMP180;11113;48.662;9.056;2022-07-22T14:01:53;96670.00;;;27.50
21898;BMP180;11113;48.662;9.056;2022-07-22T14:04:19;96666.00;;;27.40
21898;BMP180;11113;48.662;9.056;2022-07-22T14:06:45;96660.00;;;27.40
21898;BMP180;11113;48.662;9.056;2022-07-22T14:09:11;96664.00;;;27.30
21898;BMP180;11113;48.662;9.056;2022-07-22T14:11:36;96663.00;;;27.40
21898;BMP180;11113;48.662;9.056;2022-07-22T14:14:02;96665.00;;;27.40
21898;BMP180;11113;48.662;9.056;2022-07-22T14:16:27;96653.00;;;27.50
21898;BMP180;11113;48.662;9.056;2022-07-22T14:19:11;96647.00;;;27.40
21898;BMP180;11113;48.662;9.056;2022-07-22T14:21:41;96653.00;;;27.40
21898;BMP180;11113;48.662;9.056;2022-07-22T14:24:08;96648.00;;;27.40
21898;BMP180;11113;48.662;9.056;2022-07-22T14:26:36;96646.00;;;27.40
21898;BMP180;11113;48.662;9.056;2022-07-22T14:29:03;96646.00;;;27.40
21898;BMP180;11113;48.662;9.056;2022-07-22T14:31:29;96655.00;;;27.40
21898;BMP180;11113;48.662;9.056;2022-07-22T14:33:55;96648.00;;;27.40
